Brundall, United Kingdom
Current Conditions -  °F | °C
As of 4:50 AM on Saturday 29 Nov 2014 (Local Time) from EGSH Reporting Station
Broken Clouds Broken Clouds  
Wind Chill: 50°   Ceiling: 800
Heat Index: 50°   Visibility: 4mi
Dew Point: 48°   Wind: 12mph
Humidity: 94%   Direction: 100°E
Pressure: 29.83"   Gusts: NA
Location:  52.62°N, 1.44°E
Report Text: EGSH 290450Z AUTO 10010KT 070V130 6000 BKN008/// 10/09 Q1010
Loading
Personal Weather Stations






























Interactive Weather Map New forecast layout! Learn more

10-Day Weather Forecast

Advertisements
Track Severe Weather on mobile